Terminal Aerodrome Forecast
Issued by NWS

Home | Current Version | Previous Version | Text Only | Print | Product List | Glossary Off
Versions: 1 2 3 4 5 6 7 8 9 10 11 12 13 14 15 16 17 18

000
FTUS43 KPAH 231448 AAA
TAFOWB
TAF AMD
KOWB 231448Z 2315/2412 13005KT P6SM SCT006 BKN040
     FM231600 17005KT P6SM BKN050
     FM232100 30007KT P6SM SCT060
     FM240100 VRB03KT P6SM SCT150
     FM240700 00000KT 2SM BR SKC=

USA.gov is the U.S. government's official web portal to all federal, state and local government web resources and services.